createdAt,value
2024-03-13T00:00:19.162Z,.61
2024-03-13T00:00:38.621Z,.61
2024-03-13T00:01:10.777Z,.61
2024-03-13T00:01:42.546Z,.61
2024-03-13T00:02:14.810Z,.61
2024-03-13T00:02:46.713Z,.61
2024-03-13T00:03:18.547Z,.61
2024-03-13T00:03:50.524Z,.61
2024-03-13T00:04:22.575Z,.50
2024-03-13T00:04:54.481Z,.50
2024-03-13T00:05:26.466Z,.50
2024-03-13T00:05:58.299Z,.50
2024-03-13T00:06:30.532Z,.61
2024-03-13T00:07:02.610Z,.61
2024-03-13T00:07:34.638Z,.61
2024-03-13T00:08:06.480Z,.61
2024-03-13T00:08:38.262Z,.61
2024-03-13T00:09:10.246Z,.61
2024-03-13T00:09:42.158Z,.61
2024-03-13T00:10:14.195Z,.50
2024-03-13T00:10:46.215Z,.50
2024-03-13T00:11:18.130Z,.50
2024-03-13T00:11:50.304Z,.50
2024-03-13T00:12:22.083Z,.50
2024-03-13T00:12:54.212Z,.50
2024-03-13T00:13:26.004Z,.50
2024-03-13T00:13:57.977Z,.38
2024-03-13T00:14:30.010Z,.38
2024-03-13T00:15:14.360Z,.38
2024-03-13T00:15:33.908Z,.50
2024-03-13T00:16:05.949Z,.50
2024-03-13T00:16:37.933Z,.50
2024-03-13T00:17:09.971Z,.50
2024-03-13T00:17:41.818Z,.50
2024-03-13T00:18:13.820Z,.50
2024-03-13T00:18:45.917Z,.50
2024-03-13T00:19:17.756Z,.50
2024-03-13T00:19:49.905Z,.50
2024-03-13T00:20:21.894Z,.50
2024-03-13T00:20:53.792Z,.38
2024-03-13T00:21:25.606Z,.38
2024-03-13T00:21:57.573Z,.38
2024-03-13T00:22:29.594Z,.38
2024-03-13T00:23:01.680Z,.38
2024-03-13T00:23:33.741Z,.38
2024-03-13T00:24:05.585Z,.38
2024-03-13T00:24:37.599Z,.38
2024-03-13T00:25:09.874Z,.38
2024-03-13T00:25:41.438Z,.50
2024-03-13T00:26:14.111Z,.50
2024-03-13T00:26:45.628Z,.50
2024-03-13T00:27:17.554Z,.61
2024-03-13T00:27:49.567Z,.61
2024-03-13T00:28:21.440Z,.61
2024-03-13T00:28:53.512Z,.61
2024-03-13T00:29:25.477Z,.61
2024-03-13T00:29:57.374Z,.61
2024-03-13T00:30:41.678Z,.61
2024-03-13T00:31:01.414Z,.61
2024-03-13T00:31:33.247Z,.50
2024-03-13T00:32:05.131Z,.50
2024-03-13T00:32:37.592Z,.50
2024-03-13T00:33:09.237Z,.50
2024-03-13T00:33:41.202Z,.50
2024-03-13T00:34:13.147Z,.50
2024-03-13T00:34:45.258Z,.50
2024-03-13T00:35:17.187Z,.50
2024-03-13T00:35:49.009Z,.50
2024-03-13T00:36:21.048Z,.50
2024-03-13T00:36:53.075Z,.50
2024-03-13T00:37:25.316Z,.50
2024-03-13T00:37:56.851Z,.50
2024-03-13T00:38:28.966Z,.61
2024-03-13T00:39:00.981Z,.61
2024-03-13T00:39:32.752Z,.61
2024-03-13T00:40:05.099Z,.61
2024-03-13T00:40:37.012Z,.61
2024-03-13T00:41:08.809Z,.61
2024-03-13T00:41:40.652Z,.61
2024-03-13T00:42:12.830Z,.61
2024-03-13T00:42:44.985Z,.61
2024-03-13T00:43:16.857Z,.61
2024-03-13T00:43:48.671Z,.61
2024-03-13T00:44:20.715Z,.61
2024-03-13T00:44:52.738Z,.61
2024-03-13T00:45:37.310Z,.61
2024-03-13T00:45:56.760Z,.61
2024-03-13T00:46:28.665Z,.61
2024-03-13T00:47:00.653Z,.61
2024-03-13T00:47:32.940Z,.50
2024-03-13T00:48:04.625Z,.50
2024-03-13T00:48:36.677Z,.50
2024-03-13T00:49:08.787Z,.50
2024-03-13T00:49:40.432Z,.50
2024-03-13T00:50:12.558Z,.50
2024-03-13T00:50:44.473Z,.50
2024-03-13T00:51:16.401Z,.50
2024-03-13T00:51:48.346Z,.38
2024-03-13T00:52:20.471Z,.38
2024-03-13T00:52:52.279Z,.50
2024-03-13T00:53:24.332Z,.50
2024-03-13T00:53:56.353Z,.50
2024-03-13T00:54:28.292Z,.50
2024-03-13T00:55:00.579Z,.38
2024-03-13T00:55:32.317Z,.38
2024-03-13T00:56:04.323Z,.38
2024-03-13T00:56:36.207Z,.38
2024-03-13T00:57:08.466Z,.38
2024-03-13T00:57:40.275Z,.38
2024-03-13T00:58:12.117Z,.38
2024-03-13T00:58:44.142Z,.38
2024-03-13T00:59:16.148Z,.38
2024-03-13T00:59:48.234Z,.38
2024-03-13T01:00:32.672Z,.38
2024-03-13T01:00:52.131Z,.38
2024-03-13T01:01:24.210Z,.38
2024-03-13T01:01:55.935Z,.38
2024-03-13T01:02:28.033Z,.38
2024-03-13T01:03:00.131Z,.38
2024-03-13T01:03:32.056Z,.38
2024-03-13T01:04:03.973Z,.27
2024-03-13T01:04:35.857Z,.27
2024-03-13T01:05:08.215Z,.27
2024-03-13T01:05:40.025Z,.27
2024-03-13T01:06:11.755Z,.27
2024-03-13T01:06:43.834Z,.27
2024-03-13T01:07:15.826Z,.27
2024-03-13T01:07:47.644Z,.22
2024-03-13T01:08:20.231Z,.22
2024-03-13T01:08:51.724Z,.22
2024-03-13T01:09:23.863Z,.22
2024-03-13T01:09:55.502Z,.11
2024-03-13T01:10:27.724Z,.11
2024-03-13T01:10:59.664Z,.11
2024-03-13T01:11:31.862Z,.11
2024-03-13T01:12:03.655Z,.11
2024-03-13T01:12:35.765Z,.11
2024-03-13T01:13:07.483Z,.11
2024-03-13T01:13:39.501Z,.11
2024-03-13T01:14:11.433Z,.11
2024-03-13T01:14:43.486Z,.11
2024-03-13T01:15:27.847Z,.11
2024-03-13T01:15:47.372Z,.11
2024-03-13T01:16:19.417Z,.11
2024-03-13T01:16:51.380Z,.11
2024-03-13T01:17:23.340Z,.11
2024-03-13T01:17:55.165Z,.11
2024-03-13T01:18:27.188Z,.11
2024-03-13T01:18:59.456Z,.11
2024-03-13T01:19:31.603Z,.11
2024-03-13T01:20:03.301Z,0
2024-03-13T01:20:35.269Z,0
2024-03-13T01:21:07.224Z,0
2024-03-13T01:21:39.261Z,0
2024-03-13T01:22:10.994Z,0
2024-03-13T01:22:43.108Z,0
2024-03-13T01:23:15.146Z,0
2024-03-13T01:23:46.986Z,0
2024-03-13T01:24:19.006Z,0
2024-03-13T01:24:51.235Z,0
2024-03-13T01:25:23.322Z,0
2024-03-13T01:25:54.941Z,-.11
2024-03-13T01:26:26.929Z,-.11
2024-03-13T01:26:58.960Z,-.11
2024-03-13T01:27:30.925Z,-.11
2024-03-13T01:28:02.871Z,-.11
2024-03-13T01:28:34.857Z,-.11
2024-03-13T01:29:06.819Z,-.11
2024-03-13T01:29:38.914Z,-.11
2024-03-13T01:30:23.218Z,-.11
2024-03-13T01:30:45.135Z,-.11
2024-03-13T01:31:14.813Z,-.11
2024-03-13T01:31:46.631Z,-.11
2024-03-13T01:32:18.687Z,-.11
2024-03-13T01:32:50.736Z,-.11
2024-03-13T01:33:22.843Z,0
2024-03-13T01:33:54.749Z,0
2024-03-13T01:34:26.832Z,0
2024-03-13T01:34:58.783Z,0
2024-03-13T01:35:30.733Z,0
2024-03-13T01:36:02.437Z,.11
2024-03-13T01:36:34.534Z,.11
2024-03-13T01:37:06.504Z,.11
2024-03-13T01:37:38.285Z,.11
2024-03-13T01:38:10.367Z,0
2024-03-13T01:38:42.470Z,0
2024-03-13T01:39:14.511Z,0
2024-03-13T01:39:46.332Z,0
2024-03-13T01:40:18.522Z,0
2024-03-13T01:40:50.296Z,0
2024-03-13T01:41:22.315Z,0
2024-03-13T01:41:54.176Z,0
2024-03-13T01:42:26.165Z,-.11
2024-03-13T01:42:58.266Z,-.11
2024-03-13T01:43:30.403Z,-.11
2024-03-13T01:44:02.196Z,-.11
2024-03-13T01:44:34.214Z,-.11
2024-03-13T01:45:18.668Z,-.11
2024-03-13T01:45:38.067Z,-.11
2024-03-13T01:46:10.105Z,-.11
2024-03-13T01:46:42.116Z,-.11
2024-03-13T01:47:14.136Z,-.11
2024-03-13T01:47:46.112Z,-.11
2024-03-13T01:48:18.041Z,-.11
2024-03-13T01:48:50.051Z,-.11
2024-03-13T01:49:22.053Z,-.11
2024-03-13T01:49:53.916Z,-.11
2024-03-13T01:50:26.065Z,-.11
2024-03-13T01:50:57.972Z,-.11
2024-03-13T01:51:29.851Z,-.22
2024-03-13T01:52:01.988Z,-.22
2024-03-13T01:52:34.094Z,-.22
2024-03-13T01:53:05.817Z,-.22
2024-03-13T01:53:37.832Z,-.22
2024-03-13T01:54:09.776Z,-.22
2024-03-13T01:54:41.842Z,-.22
2024-03-13T01:55:13.881Z,-.22
2024-03-13T01:55:45.680Z,-.22
2024-03-13T01:56:17.682Z,-.22
2024-03-13T01:56:49.820Z,-.22
2024-03-13T01:57:21.764Z,-.22
2024-03-13T01:57:53.514Z,-.11
2024-03-13T01:58:25.751Z,-.11
2024-03-13T01:58:57.530Z,-.11
2024-03-13T01:59:29.431Z,-.11
2024-03-13T02:00:14.035Z,-.11
2024-03-13T02:00:33.936Z,-.11
2024-03-13T02:01:05.527Z,-.11
2024-03-13T02:01:37.739Z,-.11
2024-03-13T02:02:09.603Z,-.11
2024-03-13T02:02:41.447Z,-.11
2024-03-13T02:03:13.488Z,-.11
2024-03-13T02:03:45.290Z,-.11
2024-03-13T02:04:17.493Z,-.11
2024-03-13T02:04:49.394Z,-.11
2024-03-13T02:05:21.621Z,-.11
2024-03-13T02:05:53.243Z,0
2024-03-13T02:06:25.257Z,0
2024-03-13T02:06:57.354Z,0
2024-03-13T02:07:29.380Z,0
2024-03-13T02:08:01.374Z,0
2024-03-13T02:08:33.094Z,0
2024-03-13T02:09:05.213Z,0
2024-03-13T02:09:37.054Z,0
2024-03-13T02:10:09.109Z,0
2024-03-13T02:10:41.170Z,0
2024-03-13T02:11:13.236Z,0
2024-03-13T02:11:45.213Z,0
2024-03-13T02:12:16.997Z,-.11
2024-03-13T02:12:48.923Z,-.11
2024-03-13T02:13:21.459Z,-.11
2024-03-13T02:13:52.909Z,-.11
2024-03-13T02:14:24.843Z,-.11
2024-03-13T02:14:56.868Z,-.11
2024-03-13T02:15:41.351Z,-.11
2024-03-13T02:16:00.938Z,-.11
2024-03-13T02:16:32.919Z,-.11
2024-03-13T02:17:04.880Z,-.11
2024-03-13T02:17:36.927Z,-.11
2024-03-13T02:18:08.927Z,-.11
2024-03-13T02:18:40.878Z,-.11
2024-03-13T02:19:12.912Z,-.11
2024-03-13T02:19:45.034Z,-.11
2024-03-13T02:20:16.803Z,-.11
2024-03-13T02:20:48.735Z,-.11
2024-03-13T02:21:20.834Z,-.11
2024-03-13T02:21:52.550Z,-.22
2024-03-13T02:22:24.720Z,-.22
2024-03-13T02:22:56.517Z,-.22
2024-03-13T02:23:28.570Z,-.22
2024-03-13T02:24:00.535Z,-.22
2024-03-13T02:24:32.604Z,-.22
2024-03-13T02:25:04.669Z,-.22
2024-03-13T02:25:36.574Z,-.22
2024-03-13T02:26:08.514Z,-.22
2024-03-13T02:26:40.423Z,-.22
2024-03-13T02:27:12.652Z,-.22
2024-03-13T02:27:44.517Z,-.22
2024-03-13T02:28:16.423Z,-.22
2024-03-13T02:28:48.242Z,-.22
2024-03-13T02:29:20.301Z,-.22
2024-03-13T02:29:52.297Z,-.22
2024-03-13T02:30:36.663Z,-.22
2024-03-13T02:30:56.286Z,-.22
2024-03-13T02:31:28.418Z,-.27
2024-03-13T02:32:00.195Z,-.27
2024-03-13T02:32:32.167Z,-.27
2024-03-13T02:33:04.218Z,-.27
2024-03-13T02:33:36.210Z,-.27
2024-03-13T02:34:08.071Z,-.27
2024-03-13T02:34:40.082Z,-.27
2024-03-13T02:35:12.231Z,-.38
2024-03-13T02:35:44.049Z,-.38
2024-03-13T02:36:15.972Z,-.38
2024-03-13T02:36:48.089Z,-.38
2024-03-13T02:37:20.054Z,-.38
2024-03-13T02:37:51.864Z,-.38
2024-03-13T02:38:24.010Z,-.38
2024-03-13T02:38:55.936Z,-.38
2024-03-13T02:39:28.100Z,-.38
2024-03-13T02:39:59.954Z,-.27
2024-03-13T02:40:32.216Z,-.27
2024-03-13T02:41:03.770Z,-.27
2024-03-13T02:41:35.880Z,-.27
2024-03-13T02:42:07.619Z,-.38
2024-03-13T02:42:39.639Z,-.38
2024-03-13T02:43:11.747Z,-.38
2024-03-13T02:43:43.900Z,-.38
2024-03-13T02:44:15.747Z,-.38
2024-03-13T02:44:47.668Z,-.38
2024-03-13T02:45:32.127Z,-.38
2024-03-13T02:45:51.458Z,-.38
2024-03-13T02:46:23.601Z,-.38
2024-03-13T02:46:55.588Z,-.38
2024-03-13T02:47:27.770Z,-.38
2024-03-13T02:47:59.517Z,-.38
2024-03-13T02:48:31.480Z,-.38
2024-03-13T02:49:03.556Z,-.38
2024-03-13T02:49:35.639Z,-.38
2024-03-13T02:50:07.461Z,-.38
2024-03-13T02:50:39.513Z,-.38
2024-03-13T02:51:11.425Z,-.38
2024-03-13T02:51:43.439Z,-.38
2024-03-13T02:52:15.444Z,-.38
2024-03-13T02:52:47.348Z,-.38
2024-03-13T02:53:19.359Z,-.38
2024-03-13T02:53:51.268Z,-.38
2024-03-13T02:54:23.120Z,-.38
2024-03-13T02:54:55.188Z,-.38
2024-03-13T02:55:27.549Z,-.27
2024-03-13T02:55:59.243Z,-.27
2024-03-13T02:56:31.145Z,-.27
2024-03-13T02:57:03.287Z,-.27
2024-03-13T02:57:35.220Z,-.27
2024-03-13T02:58:07.048Z,-.22
2024-03-13T02:58:39.068Z,-.22
2024-03-13T02:59:11.106Z,-.22
2024-03-13T02:59:43.107Z,-.22
2024-03-13T03:00:27.410Z,-.22
2024-03-13T03:00:47.203Z,-.22
2024-03-13T03:01:19.106Z,-.22
2024-03-13T03:01:51.115Z,-.22
2024-03-13T03:02:22.939Z,-.22
2024-03-13T03:02:54.993Z,-.22
2024-03-13T03:03:26.982Z,-.22
2024-03-13T03:03:59.136Z,-.22
2024-03-13T03:04:30.866Z,-.22
2024-03-13T03:05:02.832Z,-.22
2024-03-13T03:05:34.749Z,-.22
2024-03-13T03:06:06.797Z,-.22
2024-03-13T03:06:38.715Z,-.22
2024-03-13T03:07:11.765Z,-.22
2024-03-13T03:07:42.772Z,-.22
2024-03-13T03:08:14.603Z,-.22
2024-03-13T03:08:46.742Z,-.22
2024-03-13T03:09:18.772Z,-.22
2024-03-13T03:09:50.712Z,-.22
2024-03-13T03:10:22.742Z,-.27
2024-03-13T03:10:54.594Z,-.27
2024-03-13T03:11:26.642Z,-.27
2024-03-13T03:11:58.866Z,-.27
2024-03-13T03:12:30.439Z,-.27
2024-03-13T03:13:02.623Z,-.27
2024-03-13T03:13:34.568Z,-.27
2024-03-13T03:14:06.313Z,-.27
2024-03-13T03:14:38.387Z,-.27
2024-03-13T03:15:22.730Z,-.27
2024-03-13T03:15:42.540Z,-.27
2024-03-13T03:16:14.234Z,-.27
2024-03-13T03:16:46.305Z,-.27
2024-03-13T03:17:18.416Z,-.27
2024-03-13T03:17:53.348Z,-.27
2024-03-13T03:18:22.251Z,-.27
2024-03-13T03:18:54.234Z,-.27
2024-03-13T03:19:26.289Z,-.27
2024-03-13T03:19:58.208Z,-.27
2024-03-13T03:20:30.230Z,-.27
2024-03-13T03:21:02.158Z,-.27
2024-03-13T03:21:34.290Z,-.38
2024-03-13T03:22:06.146Z,-.38
2024-03-13T03:22:38.130Z,-.38
2024-03-13T03:23:10.207Z,-.50
2024-03-13T03:23:42.027Z,-.50
2024-03-13T03:24:13.951Z,-.50
2024-03-13T03:24:45.892Z,-.50
2024-03-13T03:25:18.028Z,-.50
2024-03-13T03:25:50.118Z,-.50
2024-03-13T03:26:21.846Z,-.50
2024-03-13T03:26:53.883Z,-.50
2024-03-13T03:27:26.168Z,-.50
2024-03-13T03:27:57.872Z,-.50
2024-03-13T03:28:29.802Z,-.50
2024-03-13T03:29:01.811Z,-.50
2024-03-13T03:29:34.029Z,-.50
2024-03-13T03:30:18.309Z,-.50
2024-03-13T03:30:37.793Z,-.50
2024-03-13T03:31:09.790Z,-.50
2024-03-13T03:31:41.755Z,-.50
2024-03-13T03:32:13.491Z,-.50
2024-03-13T03:32:45.665Z,-.50
2024-03-13T03:33:17.727Z,-.50
2024-03-13T03:33:49.869Z,-.50
2024-03-13T03:34:21.579Z,-.50
2024-03-13T03:34:53.445Z,-.50
2024-03-13T03:35:25.717Z,-.50
2024-03-13T03:35:57.634Z,-.50
2024-03-13T03:36:29.517Z,-.50
2024-03-13T03:37:01.468Z,-.50
2024-03-13T03:37:33.555Z,-.50
2024-03-13T03:38:05.529Z,-.38
2024-03-13T03:38:37.254Z,-.38
2024-03-13T03:39:09.532Z,-.38
2024-03-13T03:39:41.401Z,-.27
2024-03-13T03:40:13.666Z,-.27
2024-03-13T03:40:45.266Z,-.27
2024-03-13T03:41:17.294Z,-.27
2024-03-13T03:41:49.418Z,-.27
2024-03-13T03:42:21.141Z,-.27
2024-03-13T03:42:53.225Z,-.22
2024-03-13T03:43:25.351Z,-.22
2024-03-13T03:43:57.305Z,-.22
2024-03-13T03:44:28.986Z,-.22
2024-03-13T03:45:13.565Z,-.22
2024-03-13T03:45:33.049Z,-.11
2024-03-13T03:46:05.249Z,-.11
2024-03-13T03:46:36.895Z,-.11
2024-03-13T03:47:08.926Z,-.11
2024-03-13T03:47:41.023Z,-.11
2024-03-13T03:48:13.229Z,-.11
2024-03-13T03:48:45.572Z,-.11
2024-03-13T03:49:17.039Z,-.11
2024-03-13T03:49:48.889Z,-.11
2024-03-13T03:50:21.031Z,-.11
2024-03-13T03:50:52.878Z,-.11
2024-03-13T03:51:24.999Z,-.11
2024-03-13T03:51:56.909Z,0
2024-03-13T03:52:28.738Z,0
2024-03-13T03:53:00.854Z,0
2024-03-13T03:53:32.788Z,0
2024-03-13T03:54:04.841Z,0
2024-03-13T03:54:36.670Z,0
2024-03-13T03:55:08.822Z,0
2024-03-13T03:55:40.726Z,0
2024-03-13T03:56:12.744Z,0
2024-03-13T03:56:44.920Z,0
2024-03-13T03:57:16.615Z,0
2024-03-13T03:57:48.661Z,0
2024-03-13T03:58:20.807Z,0
2024-03-13T03:58:52.513Z,0
2024-03-13T03:59:24.713Z,0
2024-03-13T03:59:56.491Z,0
2024-03-13T04:00:40.843Z,0
2024-03-13T04:01:00.617Z,0
2024-03-13T04:01:32.541Z,0
2024-03-13T04:02:04.673Z,0
2024-03-13T04:02:36.316Z,0
2024-03-13T04:03:08.331Z,0
2024-03-13T04:03:40.458Z,.11
2024-03-13T04:04:12.383Z,.11
2024-03-13T04:04:44.313Z,.11
2024-03-13T04:05:16.374Z,.22
2024-03-13T04:05:48.346Z,.22
2024-03-13T04:06:20.342Z,.22
2024-03-13T04:06:52.284Z,.22
2024-03-13T04:07:24.378Z,.22
2024-03-13T04:07:56.234Z,.22
2024-03-13T04:08:28.249Z,.22
2024-03-13T04:09:00.176Z,.22
2024-03-13T04:09:32.160Z,.22
2024-03-13T04:10:04.409Z,.22
2024-03-13T04:10:36.129Z,.22
2024-03-13T04:11:08.075Z,.22
2024-03-13T04:11:40.056Z,.27
2024-03-13T04:12:12.076Z,.27
2024-03-13T04:12:44.505Z,.38
2024-03-13T04:13:15.969Z,.38
2024-03-13T04:13:48.048Z,.38
2024-03-13T04:14:19.816Z,.38
2024-03-13T04:14:51.784Z,.38
2024-03-13T04:15:36.308Z,.38
2024-03-13T04:15:55.964Z,.50
2024-03-13T04:16:27.858Z,.50
2024-03-13T04:16:59.669Z,.50
2024-03-13T04:17:31.702Z,.50
2024-03-13T04:18:03.835Z,.50
2024-03-13T04:18:35.757Z,.50
2024-03-13T04:19:07.745Z,.61
2024-03-13T04:19:39.619Z,.61
2024-03-13T04:20:11.762Z,.61
2024-03-13T04:20:43.571Z,.61
2024-03-13T04:21:15.600Z,.61
2024-03-13T04:21:47.627Z,.72
2024-03-13T04:22:19.713Z,.72
2024-03-13T04:22:51.493Z,.72
2024-03-13T04:23:23.547Z,.72
2024-03-13T04:23:55.466Z,.72
2024-03-13T04:24:27.482Z,.72
2024-03-13T04:24:59.456Z,.72
2024-03-13T04:25:31.651Z,.72
2024-03-13T04:26:03.373Z,.72
2024-03-13T04:26:35.216Z,.72
2024-03-13T04:27:07.341Z,.72
2024-03-13T04:27:39.361Z,.72
2024-03-13T04:28:11.418Z,.77
2024-03-13T04:28:43.139Z,.77
2024-03-13T04:29:15.355Z,.77
2024-03-13T04:29:48.645Z,.77
2024-03-13T04:30:31.742Z,.77
2024-03-13T04:30:51.197Z,.77
2024-03-13T04:31:23.298Z,.77
2024-03-13T04:31:55.307Z,.77
2024-03-13T04:32:27.245Z,.77
2024-03-13T04:32:59.004Z,.77
2024-03-13T04:33:31.091Z,.77
2024-03-13T04:34:03.237Z,.77
2024-03-13T04:34:35.055Z,.88
2024-03-13T04:35:07.104Z,.88
2024-03-13T04:35:55.538Z,.88
2024-03-13T04:36:39.079Z,.88
2024-03-13T04:37:11.816Z,.88
2024-03-13T04:37:42.957Z,.88
2024-03-13T04:38:16.031Z,.88
2024-03-13T04:38:46.982Z,.88
2024-03-13T04:39:20.225Z,.88
2024-03-13T04:39:50.864Z,.88
2024-03-13T04:40:24.292Z,.88
2024-03-13T04:40:55.039Z,.88
2024-03-13T04:41:27.741Z,1.00
2024-03-13T04:41:58.858Z,1.00
2024-03-13T04:42:31.777Z,1.00
2024-03-13T04:43:02.857Z,1.00
2024-03-13T04:43:35.952Z,1.00
2024-03-13T04:44:06.674Z,1.00
2024-03-13T04:44:39.799Z,1.00
2024-03-13T04:45:22.861Z,1.00
2024-03-13T04:45:43.567Z,1.11
2024-03-13T04:46:14.631Z,1.11
2024-03-13T04:46:47.528Z,1.11
2024-03-13T04:47:18.450Z,1.11
2024-03-13T04:47:51.389Z,1.11
2024-03-13T04:48:22.659Z,1.22
2024-03-13T04:48:55.700Z,1.22
2024-03-13T04:49:26.404Z,1.22
2024-03-13T04:49:59.502Z,1.22
2024-03-13T04:50:31.073Z,1.22
2024-03-13T04:51:03.260Z,1.22
2024-03-13T04:51:34.312Z,1.22
2024-03-13T04:52:07.344Z,1.22
2024-03-13T04:52:38.729Z,1.27
2024-03-13T04:53:11.179Z,1.27
2024-03-13T04:53:42.213Z,1.27
2024-03-13T04:54:15.153Z,1.27
2024-03-13T04:54:46.388Z,1.27
2024-03-13T04:55:19.246Z,1.27
2024-03-13T04:55:50.138Z,1.27
2024-03-13T04:56:23.302Z,1.38
2024-03-13T04:56:54.144Z,1.38
2024-03-13T04:57:26.829Z,1.38
2024-03-13T04:57:57.979Z,1.38
2024-03-13T04:58:31.370Z,1.38
2024-03-13T04:59:02.010Z,1.38
2024-03-13T04:59:35.602Z,1.38
2024-03-13T05:00:18.496Z,1.50
2024-03-13T05:00:39.124Z,1.50
2024-03-13T05:01:10.033Z,1.50
2024-03-13T05:01:43.036Z,1.50
2024-03-13T05:02:14.020Z,1.50
2024-03-13T05:02:46.929Z,1.50
2024-03-13T05:03:17.764Z,1.50
2024-03-13T05:03:50.821Z,1.50
2024-03-13T05:04:21.912Z,1.50
2024-03-13T05:04:54.897Z,1.50
2024-03-13T05:05:25.738Z,1.50
2024-03-13T05:05:58.721Z,1.50
2024-03-13T05:06:29.748Z,1.50
2024-03-13T05:07:02.925Z,1.50
2024-03-13T05:07:33.651Z,1.50
2024-03-13T05:08:08.709Z,1.50
2024-03-13T05:08:37.676Z,1.50
2024-03-13T05:09:10.508Z,1.50
2024-03-13T05:09:41.628Z,1.50
2024-03-13T05:10:14.658Z,1.50
2024-03-13T05:10:45.655Z,1.50
2024-03-13T05:11:18.461Z,1.50
2024-03-13T05:11:49.451Z,1.50
2024-03-13T05:12:22.547Z,1.50
2024-03-13T05:12:53.686Z,1.50
2024-03-13T05:13:26.488Z,1.50
2024-03-13T05:13:57.400Z,1.50
2024-03-13T05:14:30.443Z,1.50
2024-03-13T05:15:13.881Z,1.50
2024-03-13T05:15:35.010Z,1.50
2024-03-13T05:16:05.407Z,1.50
2024-03-13T05:16:38.336Z,1.50
2024-03-13T05:17:09.406Z,1.50
2024-03-13T05:17:42.239Z,1.50
2024-03-13T05:18:13.246Z,1.50
2024-03-13T05:18:46.380Z,1.50
2024-03-13T05:19:17.127Z,1.50
2024-03-13T05:19:50.019Z,1.50
2024-03-13T05:20:21.212Z,1.50
2024-03-13T05:20:54.109Z,1.50
2024-03-13T05:21:25.001Z,1.50
2024-03-13T05:21:57.961Z,1.50
2024-03-13T05:22:29.039Z,1.50
2024-03-13T05:23:02.182Z,1.50
2024-03-13T05:23:33.532Z,1.50
2024-03-13T05:24:06.068Z,1.50
2024-03-13T05:24:37.010Z,1.50
2024-03-13T05:25:10.088Z,1.50
2024-03-13T05:25:40.964Z,1.50
2024-03-13T05:26:14.089Z,1.50
2024-03-13T05:26:45.324Z,1.50
2024-03-13T05:27:17.982Z,1.61
2024-03-13T05:27:48.775Z,1.61
2024-03-13T05:28:21.785Z,1.61
2024-03-13T05:28:52.782Z,1.61
2024-03-13T05:29:25.789Z,1.61
2024-03-13T05:29:57.247Z,1.61
2024-03-13T05:30:42.171Z,1.72
2024-03-13T05:31:00.804Z,1.72
2024-03-13T05:31:33.614Z,1.72
2024-03-13T05:32:04.718Z,1.72
2024-03-13T05:32:37.737Z,1.72
2024-03-13T05:33:08.757Z,1.72
2024-03-13T05:33:41.876Z,1.72
2024-03-13T05:34:12.625Z,1.72
2024-03-13T05:34:45.618Z,1.72
2024-03-13T05:35:16.722Z,1.72
2024-03-13T05:35:49.448Z,1.72
2024-03-13T05:36:20.499Z,1.72
2024-03-13T05:36:53.666Z,1.61
2024-03-13T05:37:24.483Z,1.61
2024-03-13T05:37:57.390Z,1.61
2024-03-13T05:38:28.527Z,1.61
2024-03-13T05:39:01.418Z,1.61
2024-03-13T05:39:32.259Z,1.61
2024-03-13T05:40:05.819Z,1.61
2024-03-13T05:40:36.330Z,1.61
2024-03-13T05:41:09.252Z,1.61
2024-03-13T05:41:40.182Z,1.61
2024-03-13T05:42:13.201Z,1.61
2024-03-13T05:42:44.363Z,1.61
2024-03-13T05:43:17.312Z,1.61
2024-03-13T05:43:48.090Z,1.50
2024-03-13T05:44:21.395Z,1.50
2024-03-13T05:44:52.195Z,1.50
2024-03-13T05:45:37.464Z,1.50
2024-03-13T05:45:56.146Z,1.50
2024-03-13T05:46:29.103Z,1.50
2024-03-13T05:47:00.216Z,1.50
2024-03-13T05:47:33.035Z,1.50
2024-03-13T05:48:04.133Z,1.50
2024-03-13T05:48:37.112Z,1.50
2024-03-13T05:49:08.043Z,1.50
2024-03-13T05:49:40.739Z,1.50
2024-03-13T05:50:11.898Z,1.50
2024-03-13T05:50:44.802Z,1.50
2024-03-13T05:51:15.935Z,1.50
2024-03-13T05:51:48.837Z,1.50
2024-03-13T05:52:19.749Z,1.50
2024-03-13T05:52:52.647Z,1.50
2024-03-13T05:53:24.065Z,1.50
2024-03-13T05:53:56.888Z,1.50
2024-03-13T05:54:27.733Z,1.50
2024-03-13T05:55:00.920Z,1.50
2024-03-13T05:55:31.529Z,1.50
2024-03-13T05:56:04.805Z,1.50
2024-03-13T05:56:35.793Z,1.50
2024-03-13T05:57:08.744Z,1.50
2024-03-13T05:57:39.503Z,1.50
2024-03-13T05:58:12.632Z,1.50
2024-03-13T05:58:43.463Z,1.50
2024-03-13T05:59:16.596Z,1.50
2024-03-13T05:59:47.414Z,1.50
2024-03-13T06:00:32.996Z,1.61
2024-03-13T06:00:51.582Z,1.61
2024-03-13T06:01:24.666Z,1.61
2024-03-13T06:01:55.484Z,1.61
2024-03-13T06:02:28.160Z,1.61
2024-03-13T06:02:59.412Z,1.61
2024-03-13T06:03:32.635Z,1.61
2024-03-13T06:04:03.204Z,1.61
2024-03-13T06:04:37.862Z,1.72
2024-03-13T06:05:07.427Z,1.72
2024-03-13T06:05:40.063Z,1.72
2024-03-13T06:06:11.280Z,1.72
2024-03-13T06:06:44.400Z,1.72
2024-03-13T06:07:15.446Z,1.72
2024-03-13T06:07:48.482Z,1.72
2024-03-13T06:08:19.226Z,1.77
2024-03-13T06:08:52.188Z,1.77
2024-03-13T06:09:22.996Z,1.77
2024-03-13T06:09:56.032Z,1.77
2024-03-13T06:10:30.880Z,1.77
2024-03-13T06:11:00.012Z,1.77
2024-03-13T06:11:31.249Z,1.77
2024-03-13T06:12:03.883Z,1.77
2024-03-13T06:12:34.952Z,1.77
2024-03-13T06:13:08.156Z,1.77
2024-03-13T06:13:38.789Z,1.77
2024-03-13T06:14:11.785Z,1.77
2024-03-13T06:14:42.895Z,1.77
2024-03-13T06:15:28.441Z,1.77
2024-03-13T06:15:46.857Z,1.77
2024-03-13T06:16:19.951Z,1.77
2024-03-13T06:16:50.868Z,1.77
2024-03-13T06:17:27.719Z,1.77
2024-03-13T06:17:54.705Z,1.77
2024-03-13T06:18:27.822Z,1.88
2024-03-13T06:18:58.880Z,1.88
2024-03-13T06:19:31.564Z,1.88
2024-03-13T06:20:02.727Z,1.88
2024-03-13T06:20:36.169Z,2.11
2024-03-13T06:21:06.409Z,2.11
2024-03-13T06:21:39.501Z,2.22
2024-03-13T06:22:10.613Z,2.27
2024-03-13T06:22:43.613Z,2.27
2024-03-13T06:23:14.421Z,2.27
2024-03-13T06:23:47.701Z,2.38
2024-03-13T06:24:18.439Z,2.38
2024-03-13T06:24:51.644Z,2.38
2024-03-13T06:25:22.531Z,2.50
2024-03-13T06:25:55.600Z,2.50
2024-03-13T06:26:26.433Z,2.50
2024-03-13T06:26:59.254Z,2.50
2024-03-13T06:27:30.303Z,2.50
2024-03-13T06:28:03.471Z,2.50
2024-03-13T06:28:34.392Z,2.61
2024-03-13T06:29:07.219Z,2.61
2024-03-13T06:29:38.320Z,2.61
2024-03-13T06:30:23.714Z,2.72
2024-03-13T06:30:42.214Z,2.72
2024-03-13T06:31:15.075Z,2.72
2024-03-13T06:31:46.196Z,2.72
2024-03-13T06:32:19.122Z,2.72
2024-03-13T06:32:50.120Z,2.77
2024-03-13T06:33:23.260Z,2.77
2024-03-13T06:33:54.107Z,2.77
2024-03-13T06:34:27.085Z,2.88
2024-03-13T06:34:57.995Z,2.88
2024-03-13T06:35:31.064Z,3.00
2024-03-13T06:36:02.241Z,3.00
2024-03-13T06:36:34.975Z,3.00
2024-03-13T06:37:06.005Z,3.11
2024-03-13T06:37:54.426Z,3.11
2024-03-13T06:38:25.896Z,3.11
2024-03-13T06:39:10.806Z,3.22
2024-03-13T06:39:41.960Z,3.22
2024-03-13T06:40:15.031Z,3.22
2024-03-13T06:40:45.734Z,3.27
2024-03-13T06:41:18.839Z,3.27
2024-03-13T06:41:49.868Z,3.27
2024-03-13T06:42:22.884Z,3.27
2024-03-13T06:42:53.629Z,3.27
2024-03-13T06:43:26.901Z,3.27
2024-03-13T06:43:57.783Z,3.27
2024-03-13T06:44:30.732Z,3.27
2024-03-13T06:45:21.012Z,3.27
2024-03-13T06:45:39.737Z,3.38
2024-03-13T06:46:05.513Z,3.38
2024-03-13T06:46:38.380Z,3.38
2024-03-13T06:47:09.550Z,3.38
2024-03-13T06:47:42.551Z,3.50
2024-03-13T06:48:13.617Z,3.50
2024-03-13T06:48:46.504Z,3.50
2024-03-13T06:49:17.443Z,3.50
2024-03-13T06:49:50.441Z,3.50
2024-03-13T06:50:21.590Z,3.50
2024-03-13T06:50:54.193Z,3.61
2024-03-13T06:51:25.397Z,3.61
2024-03-13T06:51:58.497Z,3.61
2024-03-13T06:52:29.408Z,3.61
2024-03-13T06:53:02.116Z,3.61
2024-03-13T06:53:33.521Z,3.61
2024-03-13T06:54:06.088Z,3.61
2024-03-13T06:54:37.120Z,3.61
2024-03-13T06:55:10.306Z,3.61
2024-03-13T06:55:41.133Z,3.61
2024-03-13T06:56:14.103Z,3.72
2024-03-13T06:56:45.443Z,3.72
2024-03-13T06:57:18.100Z,3.72
2024-03-13T06:57:49.193Z,3.77
2024-03-13T06:58:22.358Z,3.77
2024-03-13T06:58:53.082Z,3.77
2024-03-13T06:59:26.000Z,3.77
2024-03-13T07:00:00.032Z,3.77
2024-03-13T07:00:42.528Z,3.88
2024-03-13T07:01:01.176Z,3.88
2024-03-13T07:01:34.120Z,3.88
2024-03-13T07:02:05.245Z,3.88
2024-03-13T07:02:37.698Z,3.88
2024-03-13T07:03:09.442Z,4.00
2024-03-13T07:03:41.965Z,4.00
2024-03-13T07:04:12.649Z,4.00
2024-03-13T07:04:46.035Z,4.00
2024-03-13T07:05:16.916Z,4.00
2024-03-13T07:05:50.056Z,4.11
2024-03-13T07:06:20.635Z,4.11
2024-03-13T07:06:54.099Z,4.11
2024-03-13T07:07:24.723Z,4.11
2024-03-13T07:07:57.698Z,4.11
2024-03-13T07:08:28.557Z,4.11
2024-03-13T07:09:01.702Z,4.11
2024-03-13T07:09:32.624Z,4.22
2024-03-13T07:10:05.691Z,4.22
2024-03-13T07:10:36.932Z,4.22
2024-03-13T07:11:09.602Z,4.22
2024-03-13T07:11:40.824Z,4.27
2024-03-13T07:12:13.285Z,4.27
2024-03-13T07:12:44.427Z,4.38
2024-03-13T07:13:17.623Z,4.38